Home   Weather   Germany   Burg   Past weeks
Flag for Germany

Past Weather in Burg, Saxony-Anhalt, Germany — Yesterday and Last 2 Weeks

Currently: 39 °F. Clear. (Weather station: Braunschweig Wolfsburg, Germany). See more current weather

Past Weather in Burg — Graph

°F

Burg Temperature Yesterday

Maximum temperature yesterday: 64 °F (at 1:20 pm)
Minimum temperature yesterday: 41 °F (at 3:20 am)
Average temperature yesterday: 54 °F

High & Low Weather Summary for the Past Weeks

 TemperatureHumidityPressure
High66 °F (Feb 21, 12:50 pm)100% (Feb 15, 5:20 pm)30.77 "Hg (Feb 15, 5:20 pm)
Low-2 °F (Feb 14, 8:20 am)26% (Feb 21, 2:50 pm)29.77 "Hg (Feb 18, 8:50 pm)
Average39 °F72%30.28 "Hg
* Reported Feb 11 10:20 pm — Feb 26 10:50 pm, Burg. Weather by CustomWeather, © 2021

Note: Actual official high and low records may vary slightly from our data, if they occured in-between our weather recording intervals... More about our weather records

Burg Weather History for the Previous 24 Hours

Scroll right to see more
 ConditionsComfort  
Time TempWeatherWind HumidityBarometerVisibility
10:50 pm
Fri, Feb 26
41 °FClear.8 mph81%30.54 "HgN/A
10:20 pm41 °FClear.8 mph81%30.54 "HgN/A
9:50 pm43 °FPassing clouds.8 mph76%30.51 "HgN/A
9:20 pm45 °FOvercast.8 mph71%30.51 "HgN/A
8:50 pm45 °FClear.7 mph71%30.51 "Hg10 mi
8:20 pm45 °FClear.8 mph71%30.51 "Hg10 mi
7:50 pm45 °FClear.8 mph71%30.48 "Hg10 mi
7:20 pm45 °FClear.8 mph66%30.48 "Hg10 mi
6:50 pm45 °FPassing clouds.7 mph66%30.48 "HgN/A
6:20 pm45 °FClear.7 mph66%30.48 "Hg10 mi
5:50 pm46 °FSunny.8 mph57%30.45 "Hg10 mi
5:20 pm46 °FPassing clouds.8 mph62%30.45 "HgN/A
4:50 pm50 °FScattered clouds.8 mph50%30.45 "HgN/A
4:20 pm50 °FPassing clouds.10 mph54%30.45 "HgN/A
3:50 pm50 °FPartly sunny.13 mph54%30.45 "HgN/A
3:20 pm50 °FPassing clouds.10 mph54%30.42 "HgN/A
2:50 pm50 °FPassing clouds.10 mph54%30.45 "HgN/A
2:20 pm50 °FPartly sunny.14 mph62%30.45 "HgN/A
1:50 pm48 °FPartly sunny.13 mph62%30.45 "HgN/A
1:20 pm48 °FPartly sunny.12 mph66%30.45 "HgN/A
12:50 pm48 °FScattered clouds.10 mph71%30.45 "HgN/A
12:20 pm46 °FPassing clouds.9 mph76%30.45 "HgN/A
11:50 am46 °FPassing clouds.9 mph76%30.45 "HgN/A
11:20 am45 °FPassing clouds.9 mph81%30.45 "HgN/A
10:50 am45 °FSunny.9 mph87%30.45 "Hg10 mi
10:20 am45 °FSunny.9 mph81%30.45 "Hg10 mi
9:50 am45 °FPassing clouds.7 mph81%30.45 "HgN/A
9:20 am45 °FPassing clouds.8 mph81%30.45 "HgN/A
8:50 am45 °FSunny.8 mph81%30.45 "Hg10 mi
8:20 am45 °FSunny.8 mph87%30.42 "Hg10 mi
7:50 am45 °FSunny.7 mph93%30.39 "Hg10 mi
7:20 am45 °FPartly sunny.7 mph93%30.39 "HgN/A
6:50 am45 °FMostly cloudy.7 mph100%30.39 "HgN/A
6:20 am45 °FMostly cloudy.7 mph100%30.39 "Hg4 mi
5:50 am45 °FMostly cloudy.3 mph100%30.36 "Hg6 mi
5:20 am45 °FLow clouds.3 mph100%30.36 "HgN/A
4:50 am46 °FMostly cloudy.5 mph93%30.36 "HgN/A
4:20 am46 °FMostly cloudy.3 mph93%30.36 "HgN/A
3:50 am46 °FOvercast.6 mph93%30.36 "HgN/A
3:20 am46 °FMostly cloudy.6 mph93%30.36 "HgN/A
2:50 am46 °FMostly cloudy.6 mph93%30.36 "HgN/A
2:20 am46 °FMostly cloudy.5 mph93%30.36 "HgN/A
1:50 am48 °FLow clouds.5 mph87%30.36 "HgN/A
1:20 am48 °FMostly cloudy.6 mph82%30.36 "HgN/A
12:50 am50 °FMostly cloudy.7 mph82%30.36 "HgN/A
12:20 am50 °FMostly cloudy.7 mph76%30.33 "HgN/A
11:50 pm
Thu, Feb 25
52 °FOvercast.6 mph72%30.33 "HgN/A
11:20 pm54 °FMostly cloudy.No wind72%30.30 "HgN/A
Weather by CustomWeather, © 2021

See weather overview